Time;durP1;ratioP1;P1;durP2;ratioP2;P2;SDS_P1;SDS_P2;PMS_P1;PMS_P2;Temp;Humidity;BMP_temperature;BMP_pressure;BME280_temperature;BME280_humidity;BME280_pressure;Samples;Min_cycle;Max_cycle;Signal;HPM_P1;HPM_P2
2023/07/01 00:01:45;;;;;;;;;;;25.70;49.80;;;;;;5088977;28;19970;-58
2023/07/01 00:04:12;;;;;;;;;;;25.70;49.90;;;;;;5056812;28;19967;-58
2023/07/01 00:06:44;;;;;;;;;;;25.70;49.90;;;;;;5056577;28;20296;-58
2023/07/01 00:09:11;;;;;;;;;;;25.70;49.90;;;;;;5056416;28;19987;-58
2023/07/01 00:11:38;;;;;;;;;;;25.70;49.90;;;;;;5056282;28;19920;-58
2023/07/01 00:14:05;;;;;;;;;;;25.70;49.90;;;;;;5056390;28;19970;-58
2023/07/01 00:16:32;;;;;;;;;;;25.70;49.90;;;;;;5056219;28;20361;-58
2023/07/01 00:18:59;;;;;;;;;;;25.70;49.90;;;;;;5056053;28;19982;-59
2023/07/01 00:21:26;;;;;;;;;;;25.70;49.90;;;;;;5056241;28;19921;-58
2023/07/01 00:23:53;;;;;;;;;;;25.70;49.90;;;;;;5055882;28;19990;-58
2023/07/01 00:26:20;;;;;;;;;;;25.70;49.90;;;;;;5056059;28;20351;-58
2023/07/01 00:28:47;;;;;;;;;;;25.70;49.90;;;;;;5056240;28;19960;-58
2023/07/01 00:31:14;;;;;;;;;;;25.70;49.90;;;;;;5056562;28;20038;-58
2023/07/01 00:33:41;;;;;;;;;;;25.70;49.90;;;;;;5054884;28;19928;-58
2023/07/01 00:36:08;;;;;;;;;;;25.70;49.90;;;;;;5056146;28;19960;-58
2023/07/01 00:38:35;;;;;;;;;;;25.70;49.90;;;;;;5055757;28;19925;-59
2023/07/01 00:41:03;;;;;;;;;;;25.70;49.90;;;;;;5055881;28;19975;-58
2023/07/01 00:43:30;;;;;;;;;;;25.70;49.90;;;;;;5055636;28;19974;-59
2023/07/01 00:45:58;;;;;;;;;;;25.70;49.90;;;;;;5055363;28;20412;-59
2023/07/01 00:48:26;;;;;;;;;;;25.70;49.90;;;;;;5055264;28;19921;-58
2023/07/01 00:50:53;;;;;;;;;;;25.70;49.90;;;;;;5055633;28;20372;-59
2023/07/01 00:53:21;;;;;;;;;;;25.70;50.00;;;;;;5054552;28;19927;-59
2023/07/01 00:55:48;;;;;;;;;;;25.60;49.90;;;;;;5055302;28;19920;-59
2023/07/01 00:58:15;;;;;;;;;;;25.70;50.00;;;;;;5055294;28;19921;-59
2023/07/01 01:00:43;;;;;;;;;;;25.70;50.00;;;;;;5055544;28;20019;-59
2023/07/01 01:03:30;;;;;;;;;;;25.60;50.00;;;;;;5055220;28;19921;-59
2023/07/01 01:06:15;;;;;;;;;;;25.60;50.00;;;;;;5055241;28;19921;-59
2023/07/01 01:09:02;;;;;;;;;;;25.60;50.00;;;;;;5055197;28;19966;-59
2023/07/01 01:11:32;;;;;;;;;;;25.60;50.00;;;;;;5055531;28;20273;-59
2023/07/01 01:14:02;;;;;;;;;;;25.60;50.00;;;;;;5055537;28;20011;-58
2023/07/01 01:16:30;;;;;;;;;;;25.60;50.00;;;;;;5055498;28;19928;-59
2023/07/01 01:18:58;;;;;;;;;;;25.60;50.10;;;;;;5055494;28;19921;-58
2023/07/01 01:21:25;;;;;;;;;;;25.60;50.10;;;;;;5055176;28;20292;-59
2023/07/01 01:23:56;;;;;;;;;;;25.60;50.00;;;;;;5055113;28;19971;-59
2023/07/01 01:26:23;;;;;;;;;;;25.60;50.00;;;;;;5055151;28;20011;-59
2023/07/01 01:28:50;;;;;;;;;;;25.60;50.00;;;;;;5055077;28;19974;-59
2023/07/01 01:31:19;;;;;;;;;;;25.60;50.00;;;;;;5054929;28;19971;-59
2023/07/01 01:33:48;;;;;;;;;;;25.60;50.00;;;;;;5054598;28;20277;-59
2023/07/01 01:36:30;;;;;;;;;;;25.50;50.00;;;;;;5055255;28;19924;-59
2023/07/01 01:38:58;;;;;;;;;;;25.60;50.10;;;;;;5055048;28;19960;-59
2023/07/01 01:41:29;;;;;;;;;;;25.50;50.00;;;;;;5055214;28;19967;-59
2023/07/01 01:44:01;;;;;;;;;;;25.50;50.00;;;;;;5054485;28;20395;-59
2023/07/01 01:46:29;;;;;;;;;;;25.50;50.10;;;;;;5054350;28;20331;-59
2023/07/01 01:48:59;;;;;;;;;;;25.50;50.10;;;;;;5054236;28;19921;-59
2023/07/01 01:51:27;;;;;;;;;;;25.60;50.20;;;;;;5054726;28;19963;-59
2023/07/01 01:53:55;;;;;;;;;;;25.50;50.10;;;;;;5054860;28;19924;-59
2023/07/01 01:56:23;;;;;;;;;;;25.50;50.10;;;;;;5054533;28;19978;-59
2023/07/01 01:58:49;;;;;;;;;;;25.50;50.10;;;;;;5054536;28;19978;-59
2023/07/01 02:01:16;;;;;;;;;;;25.50;50.10;;;;;;5054450;28;19924;-59
2023/07/01 02:03:47;;;;;;;;;;;25.50;50.20;;;;;;5054335;28;19998;-59
2023/07/01 02:06:14;;;;;;;;;;;25.50;50.20;;;;;;5053900;28;20407;-58
2023/07/01 02:08:42;;;;;;;;;;;25.50;50.20;;;;;;5054586;28;19921;-59
2023/07/01 02:11:09;;;;;;;;;;;25.50;50.20;;;;;;5054079;28;19920;-59
2023/07/01 02:13:36;;;;;;;;;;;25.50;50.20;;;;;;5054005;28;20293;-59
2023/07/01 02:16:03;;;;;;;;;;;25.50;50.20;;;;;;5052727;28;19971;-59
2023/07/01 02:18:30;;;;;;;;;;;25.50;50.20;;;;;;5054237;28;19951;-59
2023/07/01 02:20:57;;;;;;;;;;;25.50;50.20;;;;;;5054284;28;19920;-59
2023/07/01 02:23:24;;;;;;;;;;;25.50;50.30;;;;;;5053805;28;20365;-59
2023/07/01 02:25:51;;;;;;;;;;;25.50;50.20;;;;;;5054154;28;19963;-59
2023/07/01 02:28:18;;;;;;;;;;;25.50;50.30;;;;;;5053970;28;19928;-59
2023/07/01 02:30:45;;;;;;;;;;;25.50;50.20;;;;;;5054310;28;19979;-58
2023/07/01 02:33:13;;;;;;;;;;;25.50;50.20;;;;;;5053976;28;19928;-58
2023/07/01 02:35:40;;;;;;;;;;;25.50;50.20;;;;;;5054009;28;19921;-59
2023/07/01 02:38:08;;;;;;;;;;;25.50;50.20;;;;;;5053303;28;19921;-59
2023/07/01 02:40:35;;;;;;;;;;;25.50;50.20;;;;;;5053607;28;20343;-59
2023/07/01 02:43:02;;;;;;;;;;;25.50;50.20;;;;;;5053917;28;20288;-59
2023/07/01 02:45:29;;;;;;;;;;;25.50;50.20;;;;;;5053284;28;19959;-58
2023/07/01 02:47:56;;;;;;;;;;;25.50;50.20;;;;;;5053227;28;19921;-59
2023/07/01 02:50:23;;;;;;;;;;;25.50;50.20;;;;;;5053609;28;19921;-59
2023/07/01 02:52:50;;;;;;;;;;;25.50;50.20;;;;;;5053701;28;19925;-59
2023/07/01 02:55:17;;;;;;;;;;;25.50;50.20;;;;;;5053365;28;20292;-59
2023/07/01 02:57:45;;;;;;;;;;;25.50;50.20;;;;;;5053072;28;19920;-59
2023/07/01 03:00:13;;;;;;;;;;;25.50;50.40;;;;;;5053527;28;19921;-59
2023/07/01 03:02:41;;;;;;;;;;;25.50;50.10;;;;;;5053198;28;19928;-59
2023/07/01 03:05:09;;;;;;;;;;;25.50;50.10;;;;;;5053400;28;19921;-59
2023/07/01 03:07:36;;;;;;;;;;;25.50;50.10;;;;;;5053489;28;19935;-59
2023/07/01 03:10:03;;;;;;;;;;;25.50;50.20;;;;;;5053437;28;19921;-59
2023/07/01 03:12:30;;;;;;;;;;;25.50;50.10;;;;;;5052874;28;20440;-59
2023/07/01 03:14:57;;;;;;;;;;;25.50;50.10;;;;;;5053181;28;19966;-60
2023/07/01 03:17:24;;;;;;;;;;;25.50;50.10;;;;;;5053398;28;19921;-59
2023/07/01 03:19:52;;;;;;;;;;;25.60;50.10;;;;;;5053292;28;19925;-59
2023/07/01 03:22:19;;;;;;;;;;;25.60;50.10;;;;;;5053026;28;19924;-59
2023/07/01 03:24:46;;;;;;;;;;;25.60;50.00;;;;;;5053183;28;19920;-59
2023/07/01 03:27:13;;;;;;;;;;;25.60;50.00;;;;;;5052957;28;19928;-59
2023/07/01 03:29:41;;;;;;;;;;;25.60;50.00;;;;;;5053235;28;19920;-59
2023/07/01 03:32:08;;;;;;;;;;;25.60;50.10;;;;;;5053419;28;19968;-59
2023/07/01 03:34:37;;;;;;;;;;;25.60;50.00;;;;;;5053121;28;19924;-59
2023/07/01 03:37:05;;;;;;;;;;;25.60;50.00;;;;;;5052920;28;19921;-59
2023/07/01 03:39:32;;;;;;;;;;;25.70;50.00;;;;;;5052765;28;19921;-58
2023/07/01 03:41:59;;;;;;;;;;;25.70;50.00;;;;;;5053356;28;20361;-59
2023/07/01 03:44:26;;;;;;;;;;;25.70;49.90;;;;;;5053029;28;19979;-59
2023/07/01 03:46:53;;;;;;;;;;;25.70;49.90;;;;;;5052519;28;20426;-59
2023/07/01 03:49:20;;;;;;;;;;;25.70;49.80;;;;;;5053092;28;19983;-59
2023/07/01 03:51:47;;;;;;;;;;;25.70;49.80;;;;;;5053061;28;19975;-59
2023/07/01 03:54:14;;;;;;;;;;;25.70;49.80;;;;;;5085000;28;20376;-59
2023/07/01 03:56:41;;;;;;;;;;;25.70;49.70;;;;;;5053032;28;19982;-59
2023/07/01 03:59:08;;;;;;;;;;;25.80;49.80;;;;;;5052601;28;20405;-59
2023/07/01 04:01:36;;;;;;;;;;;25.80;49.70;;;;;;5052693;28;19925;-59
2023/07/01 04:04:03;;;;;;;;;;;25.80;49.70;;;;;;5052627;28;19967;-59
2023/07/01 04:06:30;;;;;;;;;;;25.80;49.60;;;;;;5052492;28;19927;-59
2023/07/01 04:08:58;;;;;;;;;;;25.80;49.60;;;;;;5055303;28;20016;-59
2023/07/01 04:11:25;;;;;;;;;;;25.90;49.60;;;;;;5056540;28;19951;-59
2023/07/01 04:13:53;;;;;;;;;;;25.90;49.50;;;;;;5056406;28;19925;-59
2023/07/01 04:16:20;;;;;;;;;;;25.90;49.50;;;;;;5055084;28;20385;-59
2023/07/01 04:18:47;;;;;;;;;;;25.90;49.40;;;;;;5056340;28;19921;-59
2023/07/01 04:21:14;;;;;;;;;;;25.90;49.40;;;;;;5056560;28;19920;-59
2023/07/01 04:23:41;;;;;;;;;;;26.00;49.40;;;;;;5056261;28;19944;-59
2023/07/01 04:26:08;;;;;;;;;;;26.00;49.40;;;;;;5056555;28;19995;-59
2023/07/01 04:28:34;;;;;;;;;;;26.00;49.40;;;;;;5056183;28;20324;-59
2023/07/01 04:31:02;;;;;;;;;;;26.00;49.30;;;;;;5056473;28;19921;-59
2023/07/01 04:33:29;;;;;;;;;;;26.00;49.30;;;;;;5055511;28;20016;-59
2023/07/01 04:35:56;;;;;;;;;;;26.00;49.20;;;;;;5056222;28;20351;-59
2023/07/01 04:38:23;;;;;;;;;;;25.90;49.20;;;;;;5056030;28;20007;-59
2023/07/01 04:40:50;;;;;;;;;;;25.90;49.30;;;;;;5055971;28;19925;-59
2023/07/01 04:43:20;;;;;;;;;;;25.70;49.30;;;;;;5055771;28;19928;-59
2023/07/01 04:45:47;;;;;;;;;;;25.60;49.60;;;;;;5055979;28;19921;-59
2023/07/01 04:48:15;;;;;;;;;;;25.30;49.90;;;;;;5054905;28;19921;-59
2023/07/01 04:50:43;;;;;;;;;;;25.10;50.20;;;;;;5056077;28;19921;-59
2023/07/01 04:53:10;;;;;;;;;;;24.80;49.90;;;;;;5055702;28;19921;-58
2023/07/01 04:55:38;;;;;;;;;;;24.50;49.50;;;;;;5056006;28;20007;-58
2023/07/01 04:58:05;;;;;;;;;;;24.10;49.40;;;;;;5055662;28;19960;-59
2023/07/01 05:00:33;;;;;;;;;;;23.80;49.00;;;;;;5055703;28;20335;-59
2023/07/01 05:03:00;;;;;;;;;;;23.50;49.20;;;;;;5054803;28;20004;-59
2023/07/01 05:05:27;;;;;;;;;;;23.10;49.10;;;;;;5055376;28;19928;-58
2023/07/01 05:07:54;;;;;;;;;;;22.80;49.40;;;;;;5054816;28;20365;-58
2023/07/01 05:10:22;;;;;;;;;;;22.50;49.70;;;;;;5055202;28;20278;-58
2023/07/01 05:12:50;;;;;;;;;;;22.20;49.90;;;;;;5055335;28;20339;-58
2023/07/01 05:15:17;;;;;;;;;;;21.90;50.50;;;;;;5087518;28;19963;-59
2023/07/01 05:17:44;;;;;;;;;;;21.60;50.50;;;;;;5055502;28;19924;-59
2023/07/01 05:20:12;;;;;;;;;;;21.50;50.90;;;;;;5054303;28;20372;-59
2023/07/01 05:22:39;;;;;;;;;;;21.20;51.20;;;;;;5055176;28;19928;-58
2023/07/01 05:25:07;;;;;;;;;;;21.10;51.60;;;;;;5054648;28;20331;-58
2023/07/01 05:27:34;;;;;;;;;;;20.90;51.90;;;;;;5054952;28;20588;-58
2023/07/01 05:30:01;;;;;;;;;;;20.80;52.80;;;;;;5055451;28;19921;-59
2023/07/01 05:32:28;;;;;;;;;;;20.70;53.40;;;;;;5054753;28;20304;-58
2023/07/01 05:34:55;;;;;;;;;;;20.70;53.50;;;;;;5055083;28;19920;-58
2023/07/01 05:37:22;;;;;;;;;;;20.60;53.60;;;;;;5055291;28;20327;-59
2023/07/01 05:39:49;;;;;;;;;;;20.60;54.00;;;;;;5054804;28;19920;-58
2023/07/01 05:42:16;;;;;;;;;;;20.60;54.10;;;;;;5054608;28;19928;-58
2023/07/01 05:44:43;;;;;;;;;;;20.60;54.30;;;;;;5055100;28;19966;-58
2023/07/01 05:47:10;;;;;;;;;;;20.60;54.50;;;;;;5053796;28;19921;-58
2023/07/01 05:49:38;;;;;;;;;;;20.60;54.80;;;;;;5054016;28;20316;-59
2023/07/01 05:52:05;;;;;;;;;;;20.60;54.60;;;;;;5054757;28;19943;-59
2023/07/01 05:54:32;;;;;;;;;;;20.60;54.70;;;;;;5054540;28;19921;-58
2023/07/01 05:56:59;;;;;;;;;;;20.60;55.00;;;;;;5055071;28;20007;-58
2023/07/01 05:59:25;;;;;;;;;;;20.50;54.80;;;;;;5054396;28;20335;-58
2023/07/01 06:01:53;;;;;;;;;;;20.60;55.20;;;;;;5054581;28;19925;-58
2023/07/01 06:04:20;;;;;;;;;;;20.60;55.10;;;;;;5054129;28;20467;-58
2023/07/01 06:06:47;;;;;;;;;;;20.60;55.10;;;;;;5054264;28;19955;-58
2023/07/01 06:09:17;;;;;;;;;;;20.60;54.90;;;;;;5054489;28;19966;-58
2023/07/01 06:11:44;;;;;;;;;;;20.60;54.90;;;;;;5054331;28;20034;-58
2023/07/01 06:14:11;;;;;;;;;;;20.60;54.70;;;;;;5053951;28;19979;-58
2023/07/01 06:16:38;;;;;;;;;;;20.50;54.90;;;;;;5053875;28;19931;-59
2023/07/01 06:19:06;;;;;;;;;;;20.50;54.60;;;;;;5053970;28;19920;-58
2023/07/01 06:21:33;;;;;;;;;;;20.60;54.60;;;;;;5054550;28;20281;-58
2023/07/01 06:24:00;;;;;;;;;;;20.50;54.80;;;;;;5054007;28;19921;-58
2023/07/01 06:26:27;;;;;;;;;;;20.50;54.80;;;;;;5053963;28;19955;-58
2023/07/01 06:28:55;;;;;;;;;;;20.50;55.00;;;;;;5053769;28;19967;-58
2023/07/01 06:31:22;;;;;;;;;;;20.50;55.10;;;;;;5053263;28;19921;-58
2023/07/01 06:33:49;;;;;;;;;;;20.50;55.00;;;;;;5053785;28;19959;-59
2023/07/01 06:36:17;;;;;;;;;;;20.50;55.10;;;;;;5053647;28;19924;-59
2023/07/01 06:38:48;;;;;;;;;;;20.40;55.40;;;;;;5053671;28;19920;-59
2023/07/01 06:41:15;;;;;;;;;;;20.50;55.40;;;;;;5053974;28;20027;-58
2023/07/01 06:43:42;;;;;;;;;;;20.50;55.90;;;;;;5053705;28;20246;-58
2023/07/01 06:46:09;;;;;;;;;;;20.50;55.60;;;;;;5053493;28;19921;-58
2023/07/01 06:48:37;;;;;;;;;;;20.50;55.70;;;;;;5053025;28;19972;-59
2023/07/01 06:51:05;;;;;;;;;;;20.60;55.60;;;;;;5053098;28;19971;-58
2023/07/01 06:53:32;;;;;;;;;;;20.60;55.70;;;;;;5053536;28;19920;-60
2023/07/01 06:55:59;;;;;;;;;;;20.60;55.70;;;;;;5053648;28;19944;-59
2023/07/01 06:58:26;;;;;;;;;;;20.60;55.70;;;;;;5053676;28;19921;-58
2023/07/01 07:00:53;;;;;;;;;;;20.60;55.80;;;;;;5052905;28;19955;-58
2023/07/01 07:03:20;;;;;;;;;;;20.60;55.80;;;;;;5051564;28;20031;-59
2023/07/01 07:05:47;;;;;;;;;;;20.60;55.70;;;;;;5052942;28;20309;-58
2023/07/01 07:08:14;;;;;;;;;;;20.60;55.80;;;;;;5053269;28;20003;-59
2023/07/01 07:10:41;;;;;;;;;;;20.60;55.80;;;;;;5053493;28;19966;-59
2023/07/01 07:13:09;;;;;;;;;;;20.60;55.80;;;;;;5053240;28;19990;-59
2023/07/01 07:15:36;;;;;;;;;;;20.60;55.80;;;;;;5053097;28;20016;-59
2023/07/01 07:18:06;;;;;;;;;;;20.60;56.00;;;;;;5052680;28;19928;-59
2023/07/01 07:20:33;;;;;;;;;;;20.60;56.30;;;;;;5052898;28;20007;-59
2023/07/01 07:23:01;;;;;;;;;;;20.60;56.30;;;;;;5052722;28;19974;-59
2023/07/01 07:25:28;;;;;;;;;;;20.60;56.20;;;;;;5053309;28;19972;-59
2023/07/01 07:27:55;;;;;;;;;;;20.60;56.40;;;;;;5052569;28;20019;-59
2023/07/01 07:30:22;;;;;;;;;;;20.60;56.20;;;;;;5053013;28;19921;-58
2023/07/01 07:32:49;;;;;;;;;;;20.60;56.30;;;;;;5052799;28;19966;-58
2023/07/01 07:35:16;;;;;;;;;;;20.70;56.50;;;;;;5053138;28;19967;-59
2023/07/01 07:37:44;;;;;;;;;;;20.70;56.40;;;;;;5052342;28;19920;-59
2023/07/01 07:40:11;;;;;;;;;;;20.70;56.40;;;;;;5052432;28;19964;-58
2023/07/01 07:42:38;;;;;;;;;;;20.70;56.50;;;;;;5052823;28;19955;-58
2023/07/01 07:45:05;;;;;;;;;;;20.60;56.50;;;;;;5056268;28;19924;-58
2023/07/01 07:47:32;;;;;;;;;;;20.60;56.50;;;;;;5057003;28;19921;-58
2023/07/01 07:50:01;;;;;;;;;;;20.70;56.80;;;;;;5056273;28;19924;-58
2023/07/01 07:52:29;;;;;;;;;;;20.70;56.60;;;;;;5056439;28;19920;-58
2023/07/01 07:54:56;;;;;;;;;;;20.70;56.60;;;;;;5056879;28;19921;-58
2023/07/01 07:57:23;;;;;;;;;;;20.70;56.70;;;;;;5056321;28;19928;-59
2023/07/01 07:59:50;;;;;;;;;;;20.70;56.70;;;;;;5056518;28;19921;-59
2023/07/01 08:02:17;;;;;;;;;;;20.70;56.50;;;;;;5056575;28;19960;-59
2023/07/01 08:04:44;;;;;;;;;;;20.70;56.60;;;;;;5056567;28;19960;-59
2023/07/01 08:07:11;;;;;;;;;;;20.80;56.30;;;;;;5056008;28;19927;-58
2023/07/01 08:09:39;;;;;;;;;;;20.80;56.60;;;;;;5056344;28;19920;-59
2023/07/01 08:12:06;;;;;;;;;;;20.70;56.50;;;;;;5056737;28;19920;-59
2023/07/01 08:14:33;;;;;;;;;;;20.70;56.50;;;;;;5056425;28;19928;-59
2023/07/01 08:17:01;;;;;;;;;;;20.70;56.60;;;;;;5055437;28;19967;-59
2023/07/01 08:19:28;;;;;;;;;;;20.70;56.70;;;;;;5056542;28;19931;-59
2023/07/01 08:21:55;;;;;;;;;;;20.80;56.80;;;;;;5055838;28;19979;-59
2023/07/01 08:24:21;;;;;;;;;;;20.80;56.50;;;;;;5056242;28;19921;-59
2023/07/01 08:26:49;;;;;;;;;;;20.80;56.30;;;;;;5056354;28;19920;-60
2023/07/01 08:29:16;;;;;;;;;;;20.90;56.70;;;;;;5054948;28;20015;-58
2023/07/01 08:31:43;;;;;;;;;;;20.90;56.70;;;;;;5055968;28;20337;-59
2023/07/01 08:34:10;;;;;;;;;;;20.90;56.60;;;;;;5056581;28;20356;-58
2023/07/01 08:36:37;;;;;;;;;;;20.90;56.50;;;;;;5053844;28;19964;-58
2023/07/01 08:39:04;;;;;;;;;;;20.90;56.40;;;;;;5056003;28;20007;-59
2023/07/01 08:41:32;;;;;;;;;;;21.00;56.50;;;;;;5055783;28;20271;-58
2023/07/01 08:44:00;;;;;;;;;;;21.00;56.50;;;;;;5055180;28;19929;-59
2023/07/01 08:46:28;;;;;;;;;;;21.00;56.50;;;;;;5055590;28;19924;-59
2023/07/01 08:48:56;;;;;;;;;;;21.00;56.50;;;;;;5087821;28;19921;-59
2023/07/01 08:51:26;;;;;;;;;;;21.00;56.50;;;;;;5055239;28;19971;-59
2023/07/01 08:53:53;;;;;;;;;;;21.00;56.70;;;;;;5056111;28;19966;-60
2023/07/01 08:56:21;;;;;;;;;;;21.00;56.60;;;;;;5055138;28;20291;-59
2023/07/01 08:58:49;;;;;;;;;;;21.00;56.80;;;;;;5055033;28;20384;-59
2023/07/01 09:01:16;;;;;;;;;;;21.00;56.70;;;;;;5055233;28;20011;-59
2023/07/01 09:03:46;;;;;;;;;;;21.00;56.80;;;;;;5055657;28;19924;-59
2023/07/01 09:06:13;;;;;;;;;;;21.00;56.70;;;;;;5055708;28;19921;-59
2023/07/01 09:08:40;;;;;;;;;;;21.00;56.80;;;;;;5055558;28;19921;-59
2023/07/01 09:11:11;;;;;;;;;;;21.00;56.80;;;;;;5055685;28;19967;-58
2023/07/01 09:13:38;;;;;;;;;;;21.00;56.90;;;;;;5055442;28;19925;-59
2023/07/01 09:16:05;;;;;;;;;;;21.00;56.70;;;;;;5055387;28;19921;-59
2023/07/01 09:18:33;;;;;;;;;;;21.10;56.50;;;;;;5055080;28;19966;-59
2023/07/01 09:21:00;;;;;;;;;;;21.10;56.40;;;;;;5055131;28;20361;-60
2023/07/01 09:23:28;;;;;;;;;;;21.10;56.30;;;;;;5055101;28;20451;-59
2023/07/01 09:26:17;;;;;;;;;;;21.20;56.30;;;;;;5055210;28;19964;-59
2023/07/01 09:28:45;;;;;;;;;;;21.20;56.30;;;;;;5054617;28;19921;-59
2023/07/01 09:31:13;;;;;;;;;;;21.20;56.40;;;;;;5054996;28;19921;-59
2023/07/01 09:33:55;;;;;;;;;;;21.10;56.20;;;;;;5053617;28;20015;-58
2023/07/01 09:36:24;;;;;;;;;;;21.20;56.50;;;;;;5054336;28;19921;-59
2023/07/01 09:38:51;;;;;;;;;;;21.20;56.00;;;;;;5054040;28;19920;-59
2023/07/01 09:41:19;;;;;;;;;;;21.20;56.20;;;;;;5054747;28;19929;-59
2023/07/01 09:43:47;;;;;;;;;;;21.20;56.20;;;;;;5054131;28;19966;-59
2023/07/01 09:46:14;;;;;;;;;;;21.30;56.10;;;;;;5053935;28;19920;-59
2023/07/01 09:48:51;;;;;;;;;;;21.30;56.20;;;;;;5054121;28;19920;-59
2023/07/01 09:51:19;;;;;;;;;;;21.30;56.20;;;;;;5054307;28;20015;-59
2023/07/01 09:53:46;;;;;;;;;;;21.30;56.40;;;;;;5054909;28;20285;-59
2023/07/01 09:56:15;;;;;;;;;;;21.30;56.40;;;;;;5054899;28;20026;-59
2023/07/01 09:58:43;;;;;;;;;;;21.30;56.30;;;;;;5054241;28;20257;-59
2023/07/01 10:01:11;;;;;;;;;;;21.30;56.10;;;;;;5054402;28;20373;-59
2023/07/01 10:03:38;;;;;;;;;;;21.30;55.90;;;;;;5054208;28;19927;-59
2023/07/01 10:06:05;;;;;;;;;;;21.30;56.00;;;;;;5054253;28;19983;-59
2023/07/01 10:08:33;;;;;;;;;;;21.30;56.10;;;;;;5053604;28;19928;-59
2023/07/01 10:11:05;;;;;;;;;;;21.30;55.90;;;;;;5054180;28;19960;-59
2023/07/01 10:13:36;;;;;;;;;;;21.30;55.90;;;;;;5052467;28;19921;-59
2023/07/01 10:16:04;;;;;;;;;;;21.30;55.90;;;;;;5054032;28;20008;-58
2023/07/01 10:18:33;;;;;;;;;;;21.30;56.00;;;;;;5053511;28;20422;-59
2023/07/01 10:21:20;;;;;;;;;;;21.30;56.20;;;;;;5054008;28;20389;-58
2023/07/01 10:23:47;;;;;;;;;;;21.30;56.10;;;;;;5053620;28;19964;-59
2023/07/01 10:26:34;;;;;;;;;;;21.30;56.20;;;;;;5054175;28;19951;-58
2023/07/01 10:29:20;;;;;;;;;;;21.30;56.40;;;;;;5053009;28;19963;-58
2023/07/01 10:32:08;;;;;;;;;;;21.40;56.20;;;;;;5054202;28;19978;-59
2023/07/01 10:34:56;;;;;;;;;;;21.40;56.60;;;;;;5053800;28;20395;-59
2023/07/01 10:37:28;;;;;;;;;;;21.40;56.30;;;;;;5053564;28;19971;-58
2023/07/01 10:39:55;;;;;;;;;;;21.40;56.10;;;;;;5053652;28;20316;-59
2023/07/01 10:42:34;;;;;;;;;;;21.40;56.10;;;;;;5053227;28;19927;-59
2023/07/01 10:45:20;;;;;;;;;;;21.50;56.00;;;;;;5052157;28;19964;-59
2023/07/01 10:48:07;;;;;;;;;;;21.50;56.00;;;;;;5052539;28;19975;-59
2023/07/01 10:50:54;;;;;;;;;;;21.40;56.00;;;;;;5052791;28;19921;-59
2023/07/01 10:53:22;;;;;;;;;;;21.40;56.20;;;;;;5053153;28;19920;-59
2023/07/01 10:55:49;;;;;;;;;;;21.40;56.40;;;;;;5053359;28;19932;-59
2023/07/01 10:58:21;;;;;;;;;;;21.40;56.30;;;;;;5052740;28;19927;-59
2023/07/01 11:00:53;;;;;;;;;;;21.40;56.30;;;;;;5053382;28;19927;-58
2023/07/01 11:03:42;;;;;;;;;;;21.40;56.30;;;;;;5052882;28;19975;-59
2023/07/01 11:06:10;;;;;;;;;;;21.40;56.10;;;;;;5053427;28;20423;-58
2023/07/01 11:08:46;;;;;;;;;;;21.50;56.40;;;;;;5052068;28;20295;-58
2023/07/01 11:11:24;;;;;;;;;;;21.50;56.30;;;;;;5053234;28;19924;-58
2023/07/01 11:13:56;;;;;;;;;;;21.60;56.10;;;;;;5052833;28;19927;-58
2023/07/01 11:16:25;;;;;;;;;;;21.60;56.20;;;;;;5053617;28;19921;-58
2023/07/01 11:18:53;;;;;;;;;;;21.60;56.30;;;;;;5052462;28;19928;-58
2023/07/01 11:21:21;;;;;;;;;;;21.70;56.10;;;;;;5053169;28;19924;-59
2023/07/01 11:23:59;;;;;;;;;;;21.70;55.80;;;;;;5053341;28;20350;-59
2023/07/01 11:26:28;;;;;;;;;;;21.70;55.80;;;;;;5053176;28;19925;-58
2023/07/01 11:28:55;;;;;;;;;;;21.70;55.40;;;;;;5053410;28;19944;-58
2023/07/01 11:31:24;;;;;;;;;;;21.70;55.10;;;;;;5052535;28;20333;-59
2023/07/01 11:33:55;;;;;;;;;;;21.60;55.10;;;;;;5053369;28;20261;-58
2023/07/01 11:36:36;;;;;;;;;;;21.60;55.10;;;;;;5053443;28;20000;-59
2023/07/01 11:39:04;;;;;;;;;;;21.50;55.30;;;;;;5052268;28;19921;-59
2023/07/01 11:41:31;;;;;;;;;;;21.50;55.00;;;;;;5052597;28;19974;-59
2023/07/01 11:43:59;;;;;;;;;;;21.50;55.10;;;;;;5052771;28;19924;-59
2023/07/01 11:46:33;;;;;;;;;;;21.50;54.70;;;;;;5052761;28;19967;-58
2023/07/01 11:49:16;;;;;;;;;;;21.50;54.60;;;;;;5052613;28;19990;-59
2023/07/01 11:51:47;;;;;;;;;;;21.50;54.60;;;;;;5052703;28;19944;-59
2023/07/01 11:54:16;;;;;;;;;;;21.40;54.50;;;;;;5052398;28;19921;-58
2023/07/01 11:56:44;;;;;;;;;;;21.30;54.20;;;;;;5052920;28;19982;-59
2023/07/01 11:59:27;;;;;;;;;;;21.30;54.60;;;;;;5052281;28;19921;-59
2023/07/01 12:01:54;;;;;;;;;;;21.30;54.70;;;;;;5052299;28;19921;-59
2023/07/01 12:04:22;;;;;;;;;;;21.20;54.90;;;;;;5052424;28;20395;-59
2023/07/01 12:06:49;;;;;;;;;;;21.20;54.90;;;;;;5053090;28;19928;-58
2023/07/01 12:09:27;;;;;;;;;;;21.20;54.90;;;;;;5052348;28;19974;-59
2023/07/01 12:11:54;;;;;;;;;;;21.10;55.30;;;;;;5052976;28;19925;-59
2023/07/01 12:14:23;;;;;;;;;;;21.10;55.60;;;;;;5052590;28;19971;-59
2023/07/01 12:16:50;;;;;;;;;;;21.10;55.00;;;;;;5052210;28;19955;-59
2023/07/01 12:19:18;;;;;;;;;;;21.10;55.30;;;;;;5052495;28;20015;-58
2023/07/01 12:21:45;;;;;;;;;;;21.00;55.40;;;;;;5051926;28;20384;-59
2023/07/01 12:24:19;;;;;;;;;;;21.10;55.40;;;;;;5051944;28;19944;-59
2023/07/01 12:26:53;;;;;;;;;;;21.10;55.70;;;;;;5052895;28;20288;-59
2023/07/01 12:29:21;;;;;;;;;;;21.10;55.40;;;;;;5051000;28;19929;-59
2023/07/01 12:31:48;;;;;;;;;;;21.10;55.70;;;;;;5054817;28;19924;-58
2023/07/01 12:34:16;;;;;;;;;;;21.10;55.80;;;;;;5055698;28;19966;-59
2023/07/01 12:36:43;;;;;;;;;;;21.10;55.80;;;;;;5055274;28;19921;-59
2023/07/01 12:39:11;;;;;;;;;;;21.10;56.00;;;;;;5054134;28;19924;-59
2023/07/01 12:41:38;;;;;;;;;;;21.20;55.90;;;;;;5056146;28;19920;-59
2023/07/01 12:44:09;;;;;;;;;;;21.20;56.20;;;;;;5055161;28;19921;-59
2023/07/01 12:46:38;;;;;;;;;;;21.20;56.10;;;;;;5055173;28;19971;-60
2023/07/01 12:49:06;;;;;;;;;;;21.20;56.50;;;;;;5055788;28;19920;-60
2023/07/01 12:51:36;;;;;;;;;;;21.30;56.50;;;;;;5055440;28;19982;-60
2023/07/01 12:54:04;;;;;;;;;;;21.30;56.20;;;;;;5053686;28;19927;-59
2023/07/01 12:56:44;;;;;;;;;;;21.30;56.30;;;;;;5055162;28;19920;-59
2023/07/01 12:59:11;;;;;;;;;;;21.30;56.30;;;;;;5054333;28;19921;-57
2023/07/01 13:01:38;;;;;;;;;;;21.40;56.20;;;;;;5036026;28;19921;-57
2023/07/01 13:04:06;;;;;;;;;;;21.40;56.20;;;;;;5035355;28;19925;-57
2023/07/01 13:06:41;;;;;;;;;;;21.40;56.40;;;;;;5051163;28;19966;-57
2023/07/01 13:09:11;;;;;;;;;;;21.40;56.30;;;;;;5055505;28;19922;-57
2023/07/01 13:11:38;;;;;;;;;;;21.50;56.40;;;;;;5054194;28;19920;-58
2023/07/01 13:14:08;;;;;;;;;;;21.50;56.20;;;;;;5055335;28;19925;-57
2023/07/01 13:16:36;;;;;;;;;;;21.60;56.20;;;;;;5055532;28;19920;-59
2023/07/01 13:19:04;;;;;;;;;;;21.60;56.30;;;;;;5055592;28;19920;-58
2023/07/01 13:21:37;;;;;;;;;;;21.60;56.10;;;;;;5055609;28;19982;-58
2023/07/01 13:24:04;;;;;;;;;;;21.60;56.20;;;;;;5054975;28;20365;-57
2023/07/01 13:26:32;;;;;;;;;;;21.60;56.20;;;;;;5055310;28;19974;-57
2023/07/01 13:28:59;;;;;;;;;;;21.60;56.40;;;;;;5054707;28;20000;-57
2023/07/01 13:31:30;;;;;;;;;;;21.60;56.50;;;;;;5055296;28;19971;-57
2023/07/01 13:33:59;;;;;;;;;;;21.60;56.30;;;;;;5055371;28;19962;-57
2023/07/01 13:36:26;;;;;;;;;;;21.60;56.10;;;;;;5055352;28;19921;-57
2023/07/01 13:38:53;;;;;;;;;;;21.70;56.10;;;;;;5044599;28;20304;-57
2023/07/01 13:41:25;;;;;;;;;;;21.70;56.10;;;;;;5042259;28;19924;-57
2023/07/01 13:44:12;;;;;;;;;;;21.70;56.10;;;;;;5053207;28;19968;-57
2023/07/01 13:46:39;;;;;;;;;;;21.70;56.00;;;;;;5054718;28;20011;-58
2023/07/01 13:49:08;;;;;;;;;;;21.70;56.20;;;;;;5053648;28;20397;-57
2023/07/01 13:51:36;;;;;;;;;;;21.70;56.30;;;;;;5053529;28;19920;-57
2023/07/01 13:54:04;;;;;;;;;;;21.60;56.40;;;;;;5053469;28;19928;-57
2023/07/01 13:56:31;;;;;;;;;;;21.60;56.60;;;;;;5054701;28;19978;-57
2023/07/01 13:58:58;;;;;;;;;;;21.60;56.80;;;;;;5053350;28;20426;-57
2023/07/01 14:01:26;;;;;;;;;;;21.60;56.70;;;;;;5054112;28;19966;-57
2023/07/01 14:03:56;;;;;;;;;;;21.60;59.60;;;;;;5054482;28;20254;-57
2023/07/01 14:06:24;;;;;;;;;;;21.80;62.30;;;;;;5054404;28;19920;-57
2023/07/01 14:08:51;;;;;;;;;;;22.00;64.50;;;;;;5054685;28;19932;-57
2023/07/01 14:11:20;;;;;;;;;;;22.40;64.50;;;;;;5054689;28;20407;-57
2023/07/01 14:13:56;;;;;;;;;;;22.70;64.50;;;;;;5053777;28;19920;-57
2023/07/01 14:16:24;;;;;;;;;;;23.00;64.20;;;;;;5054403;28;19928;-57
2023/07/01 14:18:51;;;;;;;;;;;23.30;64.20;;;;;;5053970;28;20372;-58
2023/07/01 14:21:19;;;;;;;;;;;23.60;63.70;;;;;;5053908;28;20372;-57
2023/07/01 14:23:46;;;;;;;;;;;23.90;63.30;;;;;;5054069;28;19921;-58
2023/07/01 14:26:25;;;;;;;;;;;24.10;63.00;;;;;;5053787;28;19979;-57